sensor_id;sensor_type;location;lat;lon;timestamp;pressure;altitude;pressure_sealevel;temperature;humidity
40245;BME280;25963;42.694;23.600;2023-04-08T00:00:48;95309.19;;;4.48;100.00
40245;BME280;25963;42.694;23.600;2023-04-08T00:03:13;95302.34;;;4.47;100.00
40245;BME280;25963;42.694;23.600;2023-04-08T00:05:39;95310.53;;;4.21;100.00
40245;BME280;25963;42.694;23.600;2023-04-08T00:08:05;95310.38;;;4.22;100.00
40245;BME280;25963;42.694;23.600;2023-04-08T00:10:30;95296.78;;;4.27;100.00
40245;BME280;25963;42.694;23.600;2023-04-08T00:12:56;95304.56;;;4.35;100.00
40245;BME280;25963;42.694;23.600;2023-04-08T00:15:21;95311.28;;;4.29;100.00
40245;BME280;25963;42.694;23.600;2023-04-08T00:17:47;95304.28;;;4.07;100.00
40245;BME280;25963;42.694;23.600;2023-04-08T00:20:12;95295.03;;;3.96;100.00
40245;BME280;25963;42.694;23.600;2023-04-08T00:22:38;95300.81;;;4.06;100.00
40245;BME280;25963;42.694;23.600;2023-04-08T00:25:04;95288.19;;;3.95;100.00
40245;BME280;25963;42.694;23.600;2023-04-08T00:27:33;95308.31;;;4.09;100.00
40245;BME280;25963;42.694;23.600;2023-04-08T00:29:59;95315.00;;;4.12;100.00
40245;BME280;25963;42.694;23.600;2023-04-08T00:32:26;95286.81;;;4.07;100.00
40245;BME280;25963;42.694;23.600;2023-04-08T00:34:52;95297.53;;;4.12;100.00
40245;BME280;25963;42.694;23.600;2023-04-08T00:37:18;95312.63;;;4.25;100.00
40245;BME280;25963;42.694;23.600;2023-04-08T00:39:43;95301.53;;;4.23;100.00
40245;BME280;25963;42.694;23.600;2023-04-08T00:42:09;95295.16;;;4.26;100.00
40245;BME280;25963;42.694;23.600;2023-04-08T00:44:34;95301.19;;;4.26;100.00
40245;BME280;25963;42.694;23.600;2023-04-08T00:47:00;95285.91;;;4.15;100.00
40245;BME280;25963;42.694;23.600;2023-04-08T00:49:26;95310.94;;;4.32;100.00
40245;BME280;25963;42.694;23.600;2023-04-08T00:51:53;95296.47;;;4.22;100.00
40245;BME280;25963;42.694;23.600;2023-04-08T00:54:18;95281.97;;;3.96;100.00
40245;BME280;25963;42.694;23.600;2023-04-08T00:56:44;95295.69;;;3.98;100.00
40245;BME280;25963;42.694;23.600;2023-04-08T00:59:10;95292.47;;;3.88;100.00
40245;BME280;25963;42.694;23.600;2023-04-08T01:05:09;95306.84;;;3.84;100.00
40245;BME280;25963;42.694;23.600;2023-04-08T01:07:19;95307.31;;;3.87;100.00
40245;BME280;25963;42.694;23.600;2023-04-08T01:09:55;95314.72;;;3.76;100.00
40245;BME280;25963;42.694;23.600;2023-04-08T01:12:25;95316.69;;;3.74;100.00
40245;BME280;25963;42.694;23.600;2023-04-08T01:14:56;95295.09;;;3.57;100.00
40245;BME280;25963;42.694;23.600;2023-04-08T01:17:23;95292.28;;;3.58;100.00
40245;BME280;25963;42.694;23.600;2023-04-08T01:19:49;95295.69;;;3.67;100.00
40245;BME280;25963;42.694;23.600;2023-04-08T01:22:28;95283.31;;;3.61;100.00
40245;BME280;25963;42.694;23.600;2023-04-08T01:25:04;95291.00;;;3.62;100.00
40245;BME280;25963;42.694;23.600;2023-04-08T01:27:32;95298.97;;;3.61;100.00
40245;BME280;25963;42.694;23.600;2023-04-08T01:30:02;95286.47;;;3.56;100.00
40245;BME280;25963;42.694;23.600;2023-04-08T01:32:29;95288.38;;;3.62;100.00
40245;BME280;25963;42.694;23.600;2023-04-08T01:34:57;95302.13;;;3.48;100.00
40245;BME280;25963;42.694;23.600;2023-04-08T01:37:28;95310.41;;;3.60;100.00
40245;BME280;25963;42.694;23.600;2023-04-08T01:39:55;95292.63;;;3.55;100.00
40245;BME280;25963;42.694;23.600;2023-04-08T01:42:26;95314.56;;;3.38;100.00
40245;BME280;25963;42.694;23.600;2023-04-08T01:44:55;95316.16;;;3.47;100.00
40245;BME280;25963;42.694;23.600;2023-04-08T01:47:22;95285.28;;;3.19;100.00
40245;BME280;25963;42.694;23.600;2023-04-08T01:49:50;95283.78;;;3.33;100.00
40245;BME280;25963;42.694;23.600;2023-04-08T01:52:17;95313.84;;;3.52;100.00
40245;BME280;25963;42.694;23.600;2023-04-08T01:54:44;95290.13;;;3.31;100.00
40245;BME280;25963;42.694;23.600;2023-04-08T01:57:12;95326.00;;;3.29;100.00
40245;BME280;25963;42.694;23.600;2023-04-08T01:59:39;95323.69;;;3.42;100.00
40245;BME280;25963;42.694;23.600;2023-04-08T02:02:07;95323.59;;;3.58;100.00
40245;BME280;25963;42.694;23.600;2023-04-08T02:04:34;95338.09;;;3.61;100.00
40245;BME280;25963;42.694;23.600;2023-04-08T02:07:00;95332.06;;;3.60;100.00
40245;BME280;25963;42.694;23.600;2023-04-08T02:09:26;95342.81;;;3.65;100.00
40245;BME280;25963;42.694;23.600;2023-04-08T02:11:51;95343.31;;;3.61;100.00
40245;BME280;25963;42.694;23.600;2023-04-08T02:14:17;95329.03;;;3.49;100.00
40245;BME280;25963;42.694;23.600;2023-04-08T02:16:49;95303.50;;;3.36;100.00
40245;BME280;25963;42.694;23.600;2023-04-08T02:19:28;95332.34;;;3.34;100.00
40245;BME280;25963;42.694;23.600;2023-04-08T02:21:59;95326.03;;;3.20;100.00
40245;BME280;25963;42.694;23.600;2023-04-08T02:24:28;95321.19;;;3.09;100.00
40245;BME280;25963;42.694;23.600;2023-04-08T02:26:55;95343.28;;;3.22;100.00
40245;BME280;25963;42.694;23.600;2023-04-08T02:29:21;95353.72;;;3.22;100.00
40245;BME280;25963;42.694;23.600;2023-04-08T02:31:48;95343.91;;;3.32;100.00
40245;BME280;25963;42.694;23.600;2023-04-08T02:34:16;95332.53;;;3.16;100.00
40245;BME280;25963;42.694;23.600;2023-04-08T02:36:42;95306.47;;;3.16;100.00
40245;BME280;25963;42.694;23.600;2023-04-08T02:39:10;95331.88;;;3.31;100.00
40245;BME280;25963;42.694;23.600;2023-04-08T02:41:35;95341.25;;;3.48;100.00
40245;BME280;25963;42.694;23.600;2023-04-08T02:44:01;95338.31;;;3.51;100.00
40245;BME280;25963;42.694;23.600;2023-04-08T02:46:26;95318.47;;;3.34;100.00
40245;BME280;25963;42.694;23.600;2023-04-08T02:48:52;95343.56;;;3.35;100.00
40245;BME280;25963;42.694;23.600;2023-04-08T02:51:17;95335.50;;;3.13;100.00
40245;BME280;25963;42.694;23.600;2023-04-08T02:53:43;95327.81;;;3.20;100.00
40245;BME280;25963;42.694;23.600;2023-04-08T02:56:11;95311.75;;;3.08;100.00
40245;BME280;25963;42.694;23.600;2023-04-08T02:58:37;95316.78;;;3.10;100.00
40245;BME280;25963;42.694;23.600;2023-04-08T03:01:02;95344.44;;;3.19;100.00
40245;BME280;25963;42.694;23.600;2023-04-08T03:03:28;95339.53;;;3.32;100.00
40245;BME280;25963;42.694;23.600;2023-04-08T03:05:55;95349.78;;;3.34;100.00
40245;BME280;25963;42.694;23.600;2023-04-08T03:08:20;95342.59;;;3.44;100.00
40245;BME280;25963;42.694;23.600;2023-04-08T03:10:46;95346.00;;;3.45;100.00
40245;BME280;25963;42.694;23.600;2023-04-08T03:13:12;95340.63;;;3.38;100.00
40245;BME280;25963;42.694;23.600;2023-04-08T03:15:37;95309.53;;;3.28;100.00
40245;BME280;25963;42.694;23.600;2023-04-08T03:18:03;95341.41;;;3.47;100.00
40245;BME280;25963;42.694;23.600;2023-04-08T03:20:28;95323.81;;;3.49;100.00
40245;BME280;25963;42.694;23.600;2023-04-08T03:22:54;95336.03;;;3.56;100.00
40245;BME280;25963;42.694;23.600;2023-04-08T03:25:19;95327.34;;;3.56;100.00
40245;BME280;25963;42.694;23.600;2023-04-08T03:27:45;95315.84;;;3.50;100.00
40245;BME280;25963;42.694;23.600;2023-04-08T03:30:10;95321.84;;;3.51;100.00
40245;BME280;25963;42.694;23.600;2023-04-08T03:32:36;95321.97;;;3.57;100.00
40245;BME280;25963;42.694;23.600;2023-04-08T03:35:01;95334.66;;;3.69;100.00
40245;BME280;25963;42.694;23.600;2023-04-08T03:37:27;95337.41;;;3.75;100.00
40245;BME280;25963;42.694;23.600;2023-04-08T03:39:54;95339.53;;;3.72;100.00
40245;BME280;25963;42.694;23.600;2023-04-08T03:42:19;95331.09;;;3.61;100.00
40245;BME280;25963;42.694;23.600;2023-04-08T03:44:45;95340.41;;;3.56;100.00
40245;BME280;25963;42.694;23.600;2023-04-08T03:47:11;95336.31;;;3.61;100.00
40245;BME280;25963;42.694;23.600;2023-04-08T03:49:36;95335.97;;;3.64;100.00
40245;BME280;25963;42.694;23.600;2023-04-08T03:52:02;95353.41;;;3.64;100.00
40245;BME280;25963;42.694;23.600;2023-04-08T03:54:27;95324.97;;;3.46;100.00
40245;BME280;25963;42.694;23.600;2023-04-08T03:56:52;95342.59;;;3.44;100.00
40245;BME280;25963;42.694;23.600;2023-04-08T03:59:18;95324.81;;;3.39;100.00
40245;BME280;25963;42.694;23.600;2023-04-08T04:01:43;95336.34;;;3.53;100.00
40245;BME280;25963;42.694;23.600;2023-04-08T04:04:09;95357.91;;;3.47;100.00
40245;BME280;25963;42.694;23.600;2023-04-08T04:06:35;95350.34;;;3.60;100.00
40245;BME280;25963;42.694;23.600;2023-04-08T04:09:00;95315.28;;;3.24;100.00
40245;BME280;25963;42.694;23.600;2023-04-08T04:11:25;95348.28;;;3.48;100.00
40245;BME280;25963;42.694;23.600;2023-04-08T04:13:51;95344.22;;;3.45;100.00
40245;BME280;25963;42.694;23.600;2023-04-08T04:16:17;95353.06;;;3.67;100.00
40245;BME280;25963;42.694;23.600;2023-04-08T04:18:42;95349.41;;;3.53;100.00
40245;BME280;25963;42.694;23.600;2023-04-08T04:21:08;95346.91;;;3.60;100.00
40245;BME280;25963;42.694;23.600;2023-04-08T04:23:33;95333.41;;;3.56;100.00
40245;BME280;25963;42.694;23.600;2023-04-08T04:25:59;95318.72;;;3.55;100.00
40245;BME280;25963;42.694;23.600;2023-04-08T04:28:24;95353.38;;;3.72;100.00
40245;BME280;25963;42.694;23.600;2023-04-08T04:30:49;95367.53;;;3.86;100.00
40245;BME280;25963;42.694;23.600;2023-04-08T04:33:15;95363.13;;;3.86;100.00
40245;BME280;25963;42.694;23.600;2023-04-08T04:35:40;95366.22;;;3.82;100.00
40245;BME280;25963;42.694;23.600;2023-04-08T04:38:06;95375.13;;;3.96;100.00
40245;BME280;25963;42.694;23.600;2023-04-08T04:40:36;95367.22;;;3.81;100.00
40245;BME280;25963;42.694;23.600;2023-04-08T04:43:02;95360.63;;;3.93;100.00
40245;BME280;25963;42.694;23.600;2023-04-08T04:45:31;95373.31;;;4.04;100.00
40245;BME280;25963;42.694;23.600;2023-04-08T04:47:59;95363.25;;;3.93;100.00
40245;BME280;25963;42.694;23.600;2023-04-08T04:50:25;95349.88;;;3.88;100.00
40245;BME280;25963;42.694;23.600;2023-04-08T04:52:50;95365.94;;;4.08;100.00
40245;BME280;25963;42.694;23.600;2023-04-08T04:55:16;95360.63;;;3.93;100.00
40245;BME280;25963;42.694;23.600;2023-04-08T04:57:41;95358.78;;;4.02;100.00
40245;BME280;25963;42.694;23.600;2023-04-08T05:00:09;95374.06;;;4.13;100.00
40245;BME280;25963;42.694;23.600;2023-04-08T05:02:34;95354.81;;;3.83;100.00
40245;BME280;25963;42.694;23.600;2023-04-08T05:05:00;95368.00;;;4.12;100.00
40245;BME280;25963;42.694;23.600;2023-04-08T05:07:26;95365.13;;;4.30;100.00
40245;BME280;25963;42.694;23.600;2023-04-08T05:09:51;95365.28;;;4.37;100.00
40245;BME280;25963;42.694;23.600;2023-04-08T05:12:17;95358.75;;;4.33;100.00
40245;BME280;25963;42.694;23.600;2023-04-08T05:14:44;95349.00;;;4.27;100.00
40245;BME280;25963;42.694;23.600;2023-04-08T05:17:10;95358.41;;;4.36;100.00
40245;BME280;25963;42.694;23.600;2023-04-08T05:19:35;95358.47;;;4.51;100.00
40245;BME280;25963;42.694;23.600;2023-04-08T05:22:01;95367.28;;;4.73;100.00
40245;BME280;25963;42.694;23.600;2023-04-08T05:24:26;95364.94;;;4.78;100.00
40245;BME280;25963;42.694;23.600;2023-04-08T05:26:52;95350.16;;;4.70;100.00
40245;BME280;25963;42.694;23.600;2023-04-08T05:29:18;95351.81;;;4.86;100.00
40245;BME280;25963;42.694;23.600;2023-04-08T05:31:44;95348.78;;;4.97;100.00
40245;BME280;25963;42.694;23.600;2023-04-08T05:34:09;95352.66;;;5.01;100.00
40245;BME280;25963;42.694;23.600;2023-04-08T05:36:36;95340.50;;;5.09;100.00
40245;BME280;25963;42.694;23.600;2023-04-08T05:39:01;95362.78;;;5.34;100.00
40245;BME280;25963;42.694;23.600;2023-04-08T05:41:27;95349.00;;;5.40;100.00
40245;BME280;25963;42.694;23.600;2023-04-08T05:43:52;95364.97;;;5.75;100.00
40245;BME280;25963;42.694;23.600;2023-04-08T05:46:17;95351.53;;;5.63;100.00
40245;BME280;25963;42.694;23.600;2023-04-08T05:48:43;95355.28;;;5.90;100.00
40245;BME280;25963;42.694;23.600;2023-04-08T05:51:13;95358.91;;;5.89;96.34
40245;BME280;25963;42.694;23.600;2023-04-08T05:53:38;95347.16;;;6.00;97.09
40245;BME280;25963;42.694;23.600;2023-04-08T05:56:04;95362.06;;;6.00;95.25
40245;BME280;25963;42.694;23.600;2023-04-08T05:58:29;95343.22;;;5.75;96.06
40245;BME280;25963;42.694;23.600;2023-04-08T06:00:55;95356.88;;;5.91;95.09
40245;BME280;25963;42.694;23.600;2023-04-08T06:03:20;95352.63;;;6.20;96.94
40245;BME280;25963;42.694;23.600;2023-04-08T06:05:46;95349.28;;;6.48;96.89
40245;BME280;25963;42.694;23.600;2023-04-08T06:08:11;95347.06;;;6.73;96.08
40245;BME280;25963;42.694;23.600;2023-04-08T06:10:37;95350.00;;;6.84;95.10
40245;BME280;25963;42.694;23.600;2023-04-08T06:13:02;95354.72;;;6.96;94.11
40245;BME280;25963;42.694;23.600;2023-04-08T06:15:28;95368.97;;;6.86;93.72
40245;BME280;25963;42.694;23.600;2023-04-08T06:17:53;95365.50;;;7.07;95.22
40245;BME280;25963;42.694;23.600;2023-04-08T06:20:18;95355.78;;;7.29;94.91
40245;BME280;25963;42.694;23.600;2023-04-08T06:22:44;95361.44;;;7.61;96.73
40245;BME280;25963;42.694;23.600;2023-04-08T06:25:09;95370.72;;;7.64;88.95
40245;BME280;25963;42.694;23.600;2023-04-08T06:27:35;95369.28;;;7.96;92.67
40245;BME280;25963;42.694;23.600;2023-04-08T06:30:00;95339.25;;;7.70;88.45
40245;BME280;25963;42.694;23.600;2023-04-08T06:32:26;95353.69;;;7.53;89.30
40245;BME280;25963;42.694;23.600;2023-04-08T06:34:52;95369.94;;;7.63;88.98
40245;BME280;25963;42.694;23.600;2023-04-08T06:37:17;95373.22;;;7.72;89.00
40245;BME280;25963;42.694;23.600;2023-04-08T06:39:42;95349.78;;;7.77;88.31
40245;BME280;25963;42.694;23.600;2023-04-08T06:42:08;95366.28;;;7.99;86.71
40245;BME280;25963;42.694;23.600;2023-04-08T06:44:34;95351.44;;;7.85;86.28
40245;BME280;25963;42.694;23.600;2023-04-08T06:46:59;95363.41;;;7.94;84.82
40245;BME280;25963;42.694;23.600;2023-04-08T06:49:25;95377.56;;;7.93;85.99
40245;BME280;25963;42.694;23.600;2023-04-08T06:51:51;95370.16;;;8.16;84.41
40245;BME280;25963;42.694;23.600;2023-04-08T06:54:17;95374.63;;;8.22;84.14
40245;BME280;25963;42.694;23.600;2023-04-08T06:56:42;95370.59;;;8.27;84.63
40245;BME280;25963;42.694;23.600;2023-04-08T06:59:07;95380.91;;;8.28;83.74
40245;BME280;25963;42.694;23.600;2023-04-08T07:01:33;95372.19;;;8.21;82.06
40245;BME280;25963;42.694;23.600;2023-04-08T07:03:58;95373.16;;;8.68;86.93
40245;BME280;25963;42.694;23.600;2023-04-08T07:06:26;95379.06;;;8.90;82.59
40245;BME280;25963;42.694;23.600;2023-04-08T07:08:51;95374.38;;;8.85;78.45
40245;BME280;25963;42.694;23.600;2023-04-08T07:11:17;95384.72;;;9.13;80.30
40245;BME280;25963;42.694;23.600;2023-04-08T07:13:42;95376.63;;;9.35;79.55
40245;BME280;25963;42.694;23.600;2023-04-08T07:16:08;95393.44;;;9.07;75.17
40245;BME280;25963;42.694;23.600;2023-04-08T07:18:33;95389.78;;;9.08;80.81
40245;BME280;25963;42.694;23.600;2023-04-08T07:20:59;95394.25;;;9.08;76.49
40245;BME280;25963;42.694;23.600;2023-04-08T07:23:25;95398.09;;;9.05;78.65
40245;BME280;25963;42.694;23.600;2023-04-08T07:25:51;95391.00;;;8.86;76.43
40245;BME280;25963;42.694;23.600;2023-04-08T07:28:18;95389.97;;;8.80;79.27
40245;BME280;25963;42.694;23.600;2023-04-08T07:30:44;95389.56;;;8.90;77.86
40245;BME280;25963;42.694;23.600;2023-04-08T07:33:09;95399.31;;;9.09;78.02
40245;BME280;25963;42.694;23.600;2023-04-08T07:35:34;95396.88;;;9.01;77.69
40245;BME280;25963;42.694;23.600;2023-04-08T07:38:00;95397.88;;;8.87;77.97
40245;BME280;25963;42.694;23.600;2023-04-08T07:40:25;95393.41;;;8.94;78.81
40245;BME280;25963;42.694;23.600;2023-04-08T07:42:51;95398.28;;;9.10;79.83
40245;BME280;25963;42.694;23.600;2023-04-08T07:45:17;95393.81;;;8.84;78.91
40245;BME280;25963;42.694;23.600;2023-04-08T07:47:43;95409.22;;;9.21;79.94
40245;BME280;25963;42.694;23.600;2023-04-08T07:50:08;95402.13;;;9.01;78.97
40245;BME280;25963;42.694;23.600;2023-04-08T07:52:34;95403.97;;;9.27;80.32
40245;BME280;25963;42.694;23.600;2023-04-08T07:55:00;95406.19;;;9.10;78.15
40245;BME280;25963;42.694;23.600;2023-04-08T07:57:26;95388.75;;;8.83;79.03
40245;BME280;25963;42.694;23.600;2023-04-08T07:59:51;95413.28;;;9.17;80.60
40245;BME280;25963;42.694;23.600;2023-04-08T08:02:17;95413.28;;;9.10;80.42
40245;BME280;25963;42.694;23.600;2023-04-08T08:04:42;95402.31;;;9.00;83.01
40245;BME280;25963;42.694;23.600;2023-04-08T08:07:08;95415.47;;;8.93;83.12
40245;BME280;25963;42.694;23.600;2023-04-08T08:09:33;95402.72;;;8.97;84.17
40245;BME280;25963;42.694;23.600;2023-04-08T08:11:59;95414.88;;;9.18;84.21
40245;BME280;25963;42.694;23.600;2023-04-08T08:14:24;95412.84;;;9.00;83.09
40245;BME280;25963;42.694;23.600;2023-04-08T08:16:51;95413.25;;;8.90;83.21
40245;BME280;25963;42.694;23.600;2023-04-08T08:19:19;95413.09;;;9.25;82.99
40245;BME280;25963;42.694;23.600;2023-04-08T08:21:44;95420.97;;;8.98;83.12
40245;BME280;25963;42.694;23.600;2023-04-08T08:24:10;95409.44;;;9.26;84.02
40245;BME280;25963;42.694;23.600;2023-04-08T08:26:35;95408.41;;;9.27;82.78
40245;BME280;25963;42.694;23.600;2023-04-08T08:29:02;95416.50;;;9.05;78.69
40245;BME280;25963;42.694;23.600;2023-04-08T08:31:28;95415.69;;;9.18;79.08
40245;BME280;25963;42.694;23.600;2023-04-08T08:33:53;95416.94;;;9.16;84.34
40245;BME280;25963;42.694;23.600;2023-04-08T08:36:19;95430.47;;;9.32;83.15
40245;BME280;25963;42.694;23.600;2023-04-08T08:38:44;95423.22;;;9.28;82.01
40245;BME280;25963;42.694;23.600;2023-04-08T08:41:10;95435.53;;;9.67;81.77
40245;BME280;25963;42.694;23.600;2023-04-08T08:43:35;95432.09;;;9.67;79.65
40245;BME280;25963;42.694;23.600;2023-04-08T08:46:02;95431.28;;;9.59;80.78
40245;BME280;25963;42.694;23.600;2023-04-08T08:48:27;95429.06;;;9.70;79.13
40245;BME280;25963;42.694;23.600;2023-04-08T08:50:53;95429.06;;;9.56;78.39
40245;BME280;25963;42.694;23.600;2023-04-08T08:53:19;95417.66;;;9.89;80.02
40245;BME280;25963;42.694;23.600;2023-04-08T08:55:45;95423.56;;;9.85;81.07
40245;BME280;25963;42.694;23.600;2023-04-08T08:58:10;95423.56;;;9.85;78.28
40245;BME280;25963;42.694;23.600;2023-04-08T09:00:38;95436.69;;;9.98;74.89
40245;BME280;25963;42.694;23.600;2023-04-08T09:03:15;95425.72;;;10.07;76.68
40245;BME280;25963;42.694;23.600;2023-04-08T09:05:52;95425.72;;;10.07;79.11
40245;BME280;25963;42.694;23.600;2023-04-08T09:08:28;95436.25;;;10.14;76.30
40245;BME280;25963;42.694;23.600;2023-04-08T09:11:14;95438.97;;;10.52;75.23
40245;BME280;25963;42.694;23.600;2023-04-08T09:13:40;95433.13;;;10.82;75.28
40245;BME280;25963;42.694;23.600;2023-04-08T09:16:07;95450.41;;;10.33;72.77
40245;BME280;25963;42.694;23.600;2023-04-08T09:18:34;95433.31;;;10.49;74.59
40245;BME280;25963;42.694;23.600;2023-04-08T09:21:02;95441.75;;;10.64;75.72
40245;BME280;25963;42.694;23.600;2023-04-08T09:26:09;95438.69;;;11.06;73.13
40245;BME280;25963;42.694;23.600;2023-04-08T09:28:36;95460.06;;;10.52;70.86
40245;BME280;25963;42.694;23.600;2023-04-08T09:31:22;95446.97;;;10.78;70.65
40245;BME280;25963;42.694;23.600;2023-04-08T09:33:49;95448.97;;;10.82;71.40
40245;BME280;25963;42.694;23.600;2023-04-08T09:36:16;95440.16;;;11.27;73.15
40245;BME280;25963;42.694;23.600;2023-04-08T09:38:42;95438.81;;;11.93;73.33
40245;BME280;25963;42.694;23.600;2023-04-08T09:41:11;95439.56;;;12.55;68.17
40245;BME280;25963;42.694;23.600;2023-04-08T09:43:47;95443.47;;;12.83;61.37
40245;BME280;25963;42.694;23.600;2023-04-08T09:46:15;95424.25;;;12.57;60.17
40245;BME280;25963;42.694;23.600;2023-04-08T09:48:57;95424.44;;;12.74;61.07
40245;BME280;25963;42.694;23.600;2023-04-08T09:51:28;95432.66;;;13.14;61.61
40245;BME280;25963;42.694;23.600;2023-04-08T09:54:00;95422.63;;;13.16;65.67
40245;BME280;25963;42.694;23.600;2023-04-08T09:56:30;95427.22;;;13.51;62.69
40245;BME280;25963;42.694;23.600;2023-04-08T09:59:02;95428.22;;;13.27;59.39
40245;BME280;25963;42.694;23.600;2023-04-08T10:01:38;95431.81;;;13.02;59.10
40245;BME280;25963;42.694;23.600;2023-04-08T10:04:07;95416.94;;;13.31;60.69
40245;BME280;25963;42.694;23.600;2023-04-08T10:06:34;95423.03;;;12.90;59.61
40245;BME280;25963;42.694;23.600;2023-04-08T10:09:01;95410.72;;;12.95;57.96
40245;BME280;25963;42.694;23.600;2023-04-08T10:11:27;95408.94;;;12.77;60.21
40245;BME280;25963;42.694;23.600;2023-04-08T10:13:53;95405.19;;;12.18;59.93
40245;BME280;25963;42.694;23.600;2023-04-08T10:16:23;95394.44;;;12.31;59.19
40245;BME280;25963;42.694;23.600;2023-04-08T10:18:52;95379.41;;;12.92;63.58
40245;BME280;25963;42.694;23.600;2023-04-08T10:21:40;95388.41;;;13.15;59.83
40245;BME280;25963;42.694;23.600;2023-04-08T10:24:12;95379.28;;;13.41;58.51
40245;BME280;25963;42.694;23.600;2023-04-08T10:26:43;95375.38;;;12.60;60.92
40245;BME280;25963;42.694;23.600;2023-04-08T10:31:45;95376.63;;;12.87;58.34
40245;BME280;25963;42.694;23.600;2023-04-08T10:34:18;95374.91;;;12.93;58.84
40245;BME280;25963;42.694;23.600;2023-04-08T10:36:44;95368.53;;;12.82;60.92
40245;BME280;25963;42.694;23.600;2023-04-08T10:39:11;95364.41;;;13.52;59.88
40245;BME280;25963;42.694;23.600;2023-04-08T10:42:04;95361.53;;;13.30;57.42
40245;BME280;25963;42.694;23.600;2023-04-08T10:44:32;95343.88;;;13.23;58.73
40245;BME280;25963;42.694;23.600;2023-04-08T10:46:58;95355.31;;;13.47;57.43
40245;BME280;25963;42.694;23.600;2023-04-08T10:49:31;95353.88;;;13.21;56.88
40245;BME280;25963;42.694;23.600;2023-04-08T10:51:57;95356.50;;;13.10;56.86
40245;BME280;25963;42.694;23.600;2023-04-08T10:54:23;95356.81;;;13.32;57.94
40245;BME280;25963;42.694;23.600;2023-04-08T10:56:50;95358.41;;;12.49;56.75
40245;BME280;25963;42.694;23.600;2023-04-08T10:59:29;95355.13;;;13.07;57.64
40245;BME280;25963;42.694;23.600;2023-04-08T11:01:57;95351.28;;;13.57;55.96
40245;BME280;25963;42.694;23.600;2023-04-08T11:04:23;95348.13;;;13.95;56.93
40245;BME280;25963;42.694;23.600;2023-04-08T11:06:49;95341.59;;;13.62;55.75
40245;BME280;25963;42.694;23.600;2023-04-08T11:09:15;95332.84;;;13.50;53.65
40245;BME280;25963;42.694;23.600;2023-04-08T11:11:42;95330.53;;;13.54;53.06
40245;BME280;25963;42.694;23.600;2023-04-08T11:14:08;95322.31;;;14.31;58.67
40245;BME280;25963;42.694;23.600;2023-04-08T11:16:35;95322.22;;;14.26;52.53
40245;BME280;25963;42.694;23.600;2023-04-08T11:19:02;95321.19;;;13.75;52.82
40245;BME280;25963;42.694;23.600;2023-04-08T11:21:30;95312.22;;;14.16;50.06
40245;BME280;25963;42.694;23.600;2023-04-08T11:23:55;95310.38;;;13.64;50.66
40245;BME280;25963;42.694;23.600;2023-04-08T11:26:21;95312.66;;;13.14;52.35
40245;BME280;25963;42.694;23.600;2023-04-08T11:28:47;95294.94;;;14.02;56.56
40245;BME280;25963;42.694;23.600;2023-04-08T11:31:17;95284.84;;;14.27;50.16
40245;BME280;25963;42.694;23.600;2023-04-08T11:33:47;95292.09;;;14.60;51.34
40245;BME280;25963;42.694;23.600;2023-04-08T11:36:15;95294.94;;;14.42;47.83
40245;BME280;25963;42.694;23.600;2023-04-08T11:38:42;95284.63;;;14.57;50.23
40245;BME280;25963;42.694;23.600;2023-04-08T11:41:08;95270.06;;;14.77;45.35
40245;BME280;25963;42.694;23.600;2023-04-08T11:43:44;95288.41;;;14.61;44.99
40245;BME280;25963;42.694;23.600;2023-04-08T11:46:14;95279.63;;;14.61;46.93
40245;BME280;25963;42.694;23.600;2023-04-08T11:48:40;95280.34;;;14.28;44.59
40245;BME280;25963;42.694;23.600;2023-04-08T11:51:06;95260.84;;;14.51;46.95
40245;BME280;25963;42.694;23.600;2023-04-08T11:53:36;95266.69;;;14.81;46.12
40245;BME280;25963;42.694;23.600;2023-04-08T11:56:18;95269.75;;;14.45;46.50
40245;BME280;25963;42.694;23.600;2023-04-08T11:58:43;95263.44;;;14.63;50.92
40245;BME280;25963;42.694;23.600;2023-04-08T12:01:09;95253.41;;;14.65;50.87
40245;BME280;25963;42.694;23.600;2023-04-08T12:03:34;95269.03;;;14.78;49.26
40245;BME280;25963;42.694;23.600;2023-04-08T12:06:00;95268.13;;;14.55;47.27
40245;BME280;25963;42.694;23.600;2023-04-08T12:08:25;95226.84;;;13.90;48.79
40245;BME280;25963;42.694;23.600;2023-04-08T12:10:51;95261.88;;;14.33;47.32
40245;BME280;25963;42.694;23.600;2023-04-08T12:13:17;95267.28;;;14.26;49.70
40245;BME280;25963;42.694;23.600;2023-04-08T12:15:43;95255.00;;;14.66;49.14
40245;BME280;25963;42.694;23.600;2023-04-08T12:18:08;95253.09;;;14.78;47.54
40245;BME280;25963;42.694;23.600;2023-04-08T12:20:34;95237.25;;;14.66;47.14
40245;BME280;25963;42.694;23.600;2023-04-08T12:23:17;95251.47;;;14.77;49.48
40245;BME280;25963;42.694;23.600;2023-04-08T12:25:43;95253.41;;;14.81;49.65
40245;BME280;25963;42.694;23.600;2023-04-08T12:28:08;95249.94;;;14.98;49.40
40245;BME280;25963;42.694;23.600;2023-04-08T12:30:35;95248.09;;;14.81;47.82
40245;BME280;25963;42.694;23.600;2023-04-08T12:33:01;95261.06;;;14.49;45.19
40245;BME280;25963;42.694;23.600;2023-04-08T12:35:27;95272.28;;;14.23;46.52
40245;BME280;25963;42.694;23.600;2023-04-08T12:37:52;95248.50;;;13.47;45.68
40245;BME280;25963;42.694;23.600;2023-04-08T12:40:18;95246.66;;;13.12;52.12
40245;BME280;25963;42.694;23.600;2023-04-08T12:42:43;95237.44;;;13.50;44.53
40245;BME280;25963;42.694;23.600;2023-04-08T12:45:09;95238.28;;;13.27;44.18
40245;BME280;25963;42.694;23.600;2023-04-08T12:47:35;95221.16;;;13.70;45.54
40245;BME280;25963;42.694;23.600;2023-04-08T12:50:00;95236.00;;;13.83;44.61
40245;BME280;25963;42.694;23.600;2023-04-08T12:52:26;95226.09;;;14.07;45.77
40245;BME280;25963;42.694;23.600;2023-04-08T12:54:51;95233.25;;;14.06;45.41
40245;BME280;25963;42.694;23.600;2023-04-08T12:57:17;95229.03;;;14.22;46.39
40245;BME280;25963;42.694;23.600;2023-04-08T12:59:42;95229.03;;;14.22;44.89